Time;durP1;ratioP1;P1;durP2;ratioP2;P2;SDS_P1;SDS_P2;PMS_P1;PMS_P2;Temp;Humidity;BMP_temperature;BMP_pressure;BME280_temperature;BME280_humidity;BME280_pressure;Samples;Min_cycle;Max_cycle;Signal;HPM_P1;HPM_P2
2023/08/13 00:00:47;;;;;;;10.48;3.20;;;;;;;15.43;100.00;101557.53;4967548;28;20059;-76
2023/08/13 00:03:14;;;;;;;9.20;3.42;;;;;;;15.41;100.00;101556.69;4935460;28;20110;-76
2023/08/13 00:05:42;;;;;;;9.45;4.38;;;;;;;15.40;100.00;101562.88;4971769;28;20054;-76
2023/08/13 00:08:09;;;;;;;7.28;2.80;;;;;;;15.40;100.00;101558.44;4984591;28;20046;-75
2023/08/13 00:10:38;;;;;;;8.93;3.45;;;;;;;15.40;100.00;101555.78;4969164;28;20436;-76
2023/08/13 00:13:05;;;;;;;11.73;2.72;;;;;;;15.40;100.00;101560.22;4966277;28;20540;-75
2023/08/13 00:15:33;;;;;;;6.93;2.95;;;;;;;15.39;100.00;101554.03;4969247;28;20054;-75
2023/08/13 00:18:00;;;;;;;11.50;3.30;;;;;;;15.39;100.00;101562.00;4923463;28;22977;-75
2023/08/13 00:20:27;;;;;;;9.43;2.67;;;;;;;15.39;100.00;101561.13;5001509;28;20054;-75
2023/08/13 00:22:55;;;;;;;10.85;3.50;;;;;;;15.38;100.00;101562.00;4984677;28;20050;-75
2023/08/13 00:25:22;;;;;;;11.43;2.65;;;;;;;15.37;100.00;101565.56;4968761;28;20061;-75
2023/08/13 00:27:49;;;;;;;13.52;3.38;;;;;;;15.36;100.00;101559.34;4967287;28;20065;-75
2023/08/13 00:30:17;;;;;;;11.00;2.85;;;;;;;15.35;100.00;101557.59;4968560;28;20042;-75
2023/08/13 00:32:45;;;;;;;9.18;3.25;;;;;;;15.35;100.00;101556.72;4968576;28;20168;-75
2023/08/13 00:35:12;;;;;;;10.57;2.78;;;;;;;15.34;100.00;101561.13;4934540;28;20050;-76
2023/08/13 00:37:40;;;;;;;11.15;2.88;;;;;;;15.34;100.00;101557.59;4974944;28;20046;-76
2023/08/13 00:40:08;;;;;;;14.75;2.95;;;;;;;15.35;100.00;101564.69;4969611;28;20064;-75
2023/08/13 00:42:37;;;;;;;7.30;2.65;;;;;;;15.32;100.00;101565.56;4988578;28;20050;-75
2023/08/13 00:45:05;;;;;;;7.53;2.80;;;;;;;15.32;100.00;101554.94;5001233;28;20046;-75
2023/08/13 00:47:34;;;;;;;7.60;2.80;;;;;;;15.32;100.00;101556.72;5005417;28;20046;-75
2023/08/13 00:50:05;;;;;;;6.00;2.60;;;;;;;15.32;100.00;101559.38;4953159;28;20034;-75
2023/08/13 00:52:33;;;;;;;7.85;3.03;;;;;;;15.31;100.00;101565.56;4976141;28;20046;-75
2023/08/13 00:55:02;;;;;;;9.65;3.05;;;;;;;15.31;100.00;101560.25;4969107;28;20050;-75
2023/08/13 00:57:30;;;;;;;8.55;2.83;;;;;;;15.30;100.00;101563.81;4971778;28;20061;-75
2023/08/13 00:59:58;;;;;;;5.68;2.35;;;;;;;15.30;100.00;101559.38;4969621;28;20416;-74
2023/08/13 01:02:25;;;;;;;9.43;2.60;;;;;;;15.29;100.00;101559.38;4972085;28;20058;-75
2023/08/13 01:04:53;;;;;;;10.43;2.50;;;;;;;15.28;100.00;101569.13;4940789;28;20479;-77
2023/08/13 01:07:42;;;;;;;10.77;2.42;;;;;;;15.28;100.00;101562.94;4976786;28;20050;-75
2023/08/13 01:10:30;;;;;;;7.93;2.40;;;;;;;15.27;100.00;101558.50;4969171;28;20058;-75
2023/08/13 01:13:13;;;;;;;8.95;2.63;;;;;;;15.27;100.00;101554.06;4968451;28;20054;-75
2023/08/13 01:15:43;;;;;;;10.25;3.03;;;;;;;15.28;100.00;101552.31;4971302;28;20050;-75
2023/08/13 01:18:11;;;;;;;;;;;;;;;15.26;100.00;101551.44;4969713;28;20046;-75
2023/08/13 01:20:43;;;;;;;8.68;2.55;;;;;;;15.25;100.00;101560.28;4934313;28;19944;-75
2023/08/13 01:23:10;;;;;;;9.65;3.35;;;;;;;15.26;100.00;101562.94;4977543;28;20046;-76
2023/08/13 01:25:40;;;;;;;7.88;2.42;;;;;;;15.26;100.00;101556.75;4971224;28;20058;-75
2023/08/13 01:28:32;;;;;;;13.18;3.20;;;;;;;15.23;100.00;101560.28;4968617;28;20531;-76
2023/08/13 01:31:07;;;;;;;10.15;2.90;;;;;;;15.21;100.00;101557.63;4940969;28;20046;-75
2023/08/13 01:33:36;;;;;;;11.43;2.72;;;;;;;15.21;100.00;101565.59;4971871;28;20057;-75
2023/08/13 01:36:05;;;;;;;10.55;3.17;;;;;;;15.21;100.00;101564.72;4936801;28;20045;-76
2023/08/13 01:38:34;;;;;;;9.02;3.25;;;;;;;15.19;100.00;101550.59;4975589;28;20042;-75
2023/08/13 01:41:04;;;;;;;10.20;3.63;;;;;;;15.18;100.00;101560.31;4968644;28;20122;-75
2023/08/13 01:43:32;;;;;;;8.65;2.85;;;;;;;15.17;100.00;101561.19;4970934;28;20404;-75
2023/08/13 01:46:01;;;;;;;11.38;3.30;;;;;;;15.16;100.00;101562.13;5001332;28;20042;-75
2023/08/13 01:48:30;;;;;;;7.65;3.03;;;;;;;15.15;100.00;101557.69;4970762;28;20042;-75
2023/08/13 01:50:57;;;;;;;7.60;3.03;;;;;;;15.15;100.00;101555.03;4925700;28;20042;-75
2023/08/13 01:53:26;;;;;;;6.68;3.05;;;;;;;15.14;100.00;101557.69;4988119;28;20058;-75
2023/08/13 01:55:53;;;;;;;9.00;2.78;;;;;;;15.15;100.00;101567.41;4969693;28;20050;-75
2023/08/13 01:58:21;;;;;;;9.15;2.95;;;;;;;15.15;100.00;101559.47;4971556;28;20126;-76
2023/08/13 02:00:48;;;;;;;11.98;3.63;;;;;;;15.16;100.00;101567.41;4988097;28;20413;-75
2023/08/13 02:03:16;;;;;;;11.25;3.20;;;;;;;15.13;100.00;101561.25;4969834;28;20066;-75
2023/08/13 02:05:43;;;;;;;10.05;3.50;;;;;;;15.12;100.00;101570.97;4961143;28;20046;-75
2023/08/13 02:08:10;;;;;;;15.18;3.15;;;;;;;15.11;100.00;101569.19;4972705;28;20507;-76
2023/08/13 02:10:38;;;;;;;11.48;3.28;;;;;;;15.11;100.00;101563.03;4970798;28;20046;-76
2023/08/13 02:13:05;;;;;;;14.40;3.33;;;;;;;15.11;100.00;101566.53;4968180;28;20057;-76
2023/08/13 02:15:32;;;;;;;9.52;3.70;;;;;;;15.12;100.00;101562.13;4970925;28;20061;-75
2023/08/13 02:18:00;;;;;;;11.93;3.35;;;;;;;15.12;100.00;101567.41;4985821;28;20046;-75
2023/08/13 02:20:28;;;;;;;14.88;4.32;;;;;;;15.12;100.00;101565.66;4955100;28;20415;-75
2023/08/13 02:22:56;;;;;;;15.15;3.60;;;;;;;15.14;100.00;101563.00;4933577;28;20045;-75
2023/08/13 02:25:24;;;;;;;10.48;4.05;;;;;;;15.13;100.00;101556.81;4976908;28;20054;-75
2023/08/13 02:27:51;;;;;;;11.68;3.40;;;;;;;15.12;100.00;101563.03;4968998;28;20049;-75
2023/08/13 02:30:18;;;;;;;9.88;3.53;;;;;;;15.12;100.00;101557.72;4987231;28;20046;-75
2023/08/13 02:32:46;;;;;;;14.77;3.47;;;;;;;15.12;100.00;101556.81;4970695;28;20058;-75
2023/08/13 02:35:13;;;;;;;10.80;3.47;;;;;;;15.10;100.00;101554.16;4969752;28;20081;-75
2023/08/13 02:37:41;;;;;;;11.23;4.00;;;;;;;15.10;100.00;101556.81;4931939;28;20046;-75
2023/08/13 02:40:08;;;;;;;9.57;3.75;;;;;;;15.10;100.00;101556.81;4985517;28;20535;-75
2023/08/13 02:42:36;;;;;;;9.88;3.03;;;;;;;15.10;100.00;101556.81;4986963;28;20038;-75
2023/08/13 02:45:04;;;;;;;10.75;3.60;;;;;;;15.09;100.00;101552.41;4983252;28;20050;-75
2023/08/13 02:47:31;;;;;;;11.45;3.42;;;;;;;15.10;100.00;101551.50;5002027;28;20065;-75
2023/08/13 02:49:59;;;;;;;9.98;3.58;;;;;;;15.09;100.00;101547.09;4983346;28;20062;-75
2023/08/13 02:52:26;;;;;;;9.30;3.35;;;;;;;15.09;100.00;101549.75;4999465;28;20046;-76
2023/08/13 02:54:54;;;;;;;11.38;3.72;;;;;;;15.09;100.00;101562.16;4940793;28;20042;-75
2023/08/13 02:57:21;;;;;;;12.82;3.83;;;;;;;15.07;100.00;101550.66;4965768;28;20050;-75
2023/08/13 02:59:48;;;;;;;12.13;3.47;;;;;;;15.06;100.00;101557.72;4963498;28;20051;-75
2023/08/13 03:02:16;;;;;;;9.93;3.28;;;;;;;15.04;100.00;101556.84;4965378;28;20050;-75
2023/08/13 03:04:44;;;;;;;10.93;3.78;;;;;;;15.03;100.00;101555.09;4949264;28;20059;-76
2023/08/13 03:07:11;;;;;;;9.00;3.50;;;;;;;15.02;100.00;101551.53;4964297;28;20057;-75
2023/08/13 03:09:38;;;;;;;12.10;4.30;;;;;;;15.00;100.00;101555.09;4923057;28;20064;-75
2023/08/13 03:12:06;;;;;;;13.73;3.90;;;;;;;14.99;100.00;101554.22;4962976;28;20057;-75
2023/08/13 03:14:34;;;;;;;12.85;3.40;;;;;;;14.97;100.00;101544.47;4965921;28;20051;-75
2023/08/13 03:17:02;;;;;;;13.15;3.97;;;;;;;14.96;100.00;101548.91;4963276;28;20043;-75
2023/08/13 03:19:29;;;;;;;12.15;3.42;;;;;;;14.96;100.00;101548.03;4967462;28;20488;-75
2023/08/13 03:21:58;;;;;;;12.30;2.90;;;;;;;14.95;100.00;101538.28;4964374;28;20043;-74
2023/08/13 03:24:25;;;;;;;13.00;3.17;;;;;;;14.94;100.00;101548.03;4923511;28;20047;-76
2023/08/13 03:26:52;;;;;;;14.68;3.40;;;;;;;14.92;100.00;101544.50;4995936;28;20058;-75
2023/08/13 03:29:20;;;;;;;10.02;3.05;;;;;;;14.91;100.00;101542.72;4981596;28;20043;-75
2023/08/13 03:31:49;;;;;;;14.93;3.30;;;;;;;14.90;100.00;101548.06;4963942;28;20051;-75
2023/08/13 03:34:20;;;;;;;8.85;3.20;;;;;;;14.89;100.00;101546.28;4965761;28;20051;-75
2023/08/13 03:36:47;;;;;;;8.77;2.88;;;;;;;14.87;100.00;101545.41;4963947;28;20094;-75
2023/08/13 03:39:15;;;;;;;9.40;3.70;;;;;;;14.84;100.00;101548.06;4965145;28;20054;-75
2023/08/13 03:41:43;;;;;;;12.10;3.28;;;;;;;14.81;100.00;101549.84;4922139;28;20061;-75
2023/08/13 03:44:11;;;;;;;10.93;3.22;;;;;;;14.81;100.00;101547.19;4964767;28;20046;-74
2023/08/13 03:46:39;;;;;;;10.32;3.15;;;;;;;14.79;100.00;101545.44;4947474;28;20509;-75
2023/08/13 03:49:07;;;;;;;12.60;3.42;;;;;;;14.76;100.00;101551.66;4947316;28;20124;-75
2023/08/13 03:51:37;;;;;;;11.73;2.80;;;;;;;14.73;100.00;101556.94;4965669;28;20428;-75
2023/08/13 03:54:05;;;;;;;9.32;3.47;;;;;;;14.72;100.00;101551.63;4962777;28;20066;-75
2023/08/13 03:56:36;;;;;;;16.48;4.68;;;;;;;14.68;100.00;101558.72;4937039;28;20057;-76
2023/08/13 03:59:03;;;;;;;11.05;3.92;;;;;;;14.67;100.00;101550.75;4963498;28;20038;-75
2023/08/13 04:01:31;;;;;;;12.48;3.50;;;;;;;14.64;100.00;101556.09;4946405;28;20417;-75
2023/08/13 04:03:59;;;;;;;10.38;3.60;;;;;;;14.63;100.00;101563.19;4978892;28;20050;-75
2023/08/13 04:06:26;;;;;;;9.45;3.60;;;;;;;14.61;100.00;101556.97;4965431;28;20059;-75
2023/08/13 04:08:53;;;;;;;9.55;3.10;;;;;;;14.59;100.00;101557.00;4964913;28;20046;-76
2023/08/13 04:11:21;;;;;;;14.23;4.22;;;;;;;14.58;100.00;101568.47;4924665;28;20092;-76
2023/08/13 04:13:48;;;;;;;9.05;3.65;;;;;;;14.58;100.00;101568.47;4985447;28;20042;-75
2023/08/13 04:16:17;;;;;;;12.73;3.33;;;;;;;14.60;100.00;101573.78;4969227;28;20055;-75
2023/08/13 04:18:46;;;;;;;11.70;3.70;;;;;;;14.60;100.00;101569.34;4967755;28;20382;-74
2023/08/13 04:21:14;;;;;;;16.23;3.83;;;;;;;14.62;100.00;101569.34;4968308;28;20053;-76
2023/08/13 04:23:41;;;;;;;13.15;4.53;;;;;;;14.63;100.00;101565.81;4969828;28;20074;-75
2023/08/13 04:26:08;;;;;;;10.07;3.33;;;;;;;14.65;100.00;101565.81;4927019;28;20058;-75
2023/08/13 04:28:36;;;;;;;16.20;4.10;;;;;;;14.67;100.00;101567.59;4985622;28;20051;-76
2023/08/13 04:31:03;;;;;;;11.75;3.67;;;;;;;14.68;100.00;101571.97;4966704;28;20058;-76
2023/08/13 04:33:35;;;;;;;13.32;4.05;;;;;;;14.70;100.00;101575.50;4968398;28;20053;-75
2023/08/13 04:36:02;;;;;;;14.20;3.53;;;;;;;14.73;100.00;101588.78;4966540;28;20066;-75
2023/08/13 04:38:31;;;;;;;12.05;3.97;;;;;;;14.77;100.00;101577.28;4971085;28;20053;-74
2023/08/13 04:41:02;;;;;;;19.38;5.63;;;;;;;14.83;100.00;101584.34;4911758;28;21974;-74
2023/08/13 04:43:32;;;;;;;13.65;4.07;;;;;;;14.89;100.00;101568.38;4969703;28;20065;-75
2023/08/13 04:45:59;;;;;;;14.98;3.92;;;;;;;14.96;100.00;101571.91;4966283;28;20425;-76
2023/08/13 04:48:40;;;;;;;13.00;3.33;;;;;;;15.04;100.00;101574.53;4953837;28;20054;-75
2023/08/13 04:51:08;;;;;;;10.73;3.40;;;;;;;15.09;100.00;101570.97;4966244;28;20047;-75
2023/08/13 04:53:36;;;;;;;17.27;4.43;;;;;;;15.14;100.00;101563.00;4949104;29;20058;-76
2023/08/13 04:56:07;;;;;;;10.77;3.60;;;;;;;15.19;100.00;101563.84;4966322;28;20053;-76
2023/08/13 04:58:35;;;;;;;17.08;3.78;;;;;;;15.23;100.00;101560.28;4943487;28;20054;-75
2023/08/13 05:01:03;;;;;;;10.45;3.72;;;;;;;15.28;100.00;101560.28;4982777;28;20074;-76
2023/08/13 05:03:31;;;;;;;9.43;3.80;;;;;;;15.34;100.00;101554.94;4984834;28;20054;-75
2023/08/13 05:05:59;;;;;;;9.38;3.47;;;;;;;15.40;100.00;101560.22;4966006;28;20055;-75
2023/08/13 05:08:26;;;;;;;9.48;3.08;;;;;;;15.46;100.00;101554.84;4968772;28;20047;-75
2023/08/13 05:10:55;;;;;;;13.32;3.33;;;;;;;15.49;100.00;101562.81;4967501;28;20066;-75
2023/08/13 05:13:23;;;;;;;13.88;3.50;;;;;;;15.51;100.00;101552.19;4931272;28;20058;-75
2023/08/13 05:15:50;;;;;;;10.50;3.47;;;;;;;15.50;100.00;101551.31;4999856;28;20051;-75
2023/08/13 05:18:18;;;;;;;13.20;3.90;;;;;;;15.54;100.00;101549.53;5000648;28;20055;-75
2023/08/13 05:20:47;;;;;;;22.48;4.35;;;;;;;15.59;100.00;101558.31;4983876;28;20057;-74
2023/08/13 05:23:14;;;;;;;14.63;3.65;;;;;;;15.64;100.00;101559.19;4966420;28;20058;-75
2023/08/13 05:25:42;;;;;;;9.65;4.70;;;;;;;15.69;100.00;101572.44;4968821;28;20050;-75
2023/08/13 05:28:09;;;;;;;14.10;4.80;;;;;;;15.71;100.00;101562.69;4923271;28;20055;-75
2023/08/13 05:30:38;;;;;;;9.95;3.65;;;;;;;15.74;100.00;101563.56;4952188;28;20043;-75
2023/08/13 05:33:07;;;;;;;9.82;3.40;;;;;;;15.78;100.00;101565.34;4965110;28;20135;-74
2023/08/13 05:35:35;;;;;;;14.38;4.15;;;;;;;15.85;100.00;101570.59;4968244;28;20054;-75
2023/08/13 05:38:02;;;;;;;11.18;4.15;;;;;;;15.90;100.00;101566.16;4964751;28;20543;-75
2023/08/13 05:40:33;;;;;;;13.27;3.50;;;;;;;15.96;100.00;101566.97;4968711;28;20705;-75
2023/08/13 05:43:02;;;;;;;11.88;3.75;;;;;;;16.02;100.00;101573.13;4926962;28;20047;-75
2023/08/13 05:45:29;;;;;;;9.77;3.38;;;;;;;16.04;100.00;101577.53;4984139;28;20059;-74
2023/08/13 05:47:57;;;;;;;12.77;3.83;;;;;;;16.07;100.00;101561.56;4965220;28;20067;-74
2023/08/13 05:50:24;;;;;;;12.73;3.78;;;;;;;16.09;100.00;101557.13;4970222;28;20054;-76
2023/08/13 05:52:52;;;;;;;14.43;4.03;;;;;;;16.11;100.00;101563.31;4969150;28;20058;-75
2023/08/13 05:55:19;;;;;;;9.50;3.90;;;;;;;16.13;100.00;101561.50;4969778;28;20062;-76
2023/08/13 05:57:47;;;;;;;12.25;4.07;;;;;;;16.15;100.00;101566.81;4949531;28;20492;-74
2023/08/13 06:00:15;;;;;;;9.07;3.63;;;;;;;16.17;100.00;101559.72;4949317;28;20496;-75
2023/08/13 06:02:42;;;;;;;8.70;3.58;;;;;;;16.19;100.00;101563.25;4971383;28;20114;-75
2023/08/13 06:05:09;;;;;;;11.52;3.28;;;;;;;16.21;100.00;101568.53;4967418;28;20058;-75
2023/08/13 06:07:37;;;;;;;9.50;3.80;;;;;;;16.21;100.00;101577.41;4971572;28;20431;-75
2023/08/13 06:10:04;;;;;;;10.57;3.72;;;;;;;16.23;100.00;101569.41;4967261;28;20057;-75
2023/08/13 06:12:33;;;;;;;14.15;3.70;;;;;;;16.22;100.00;101565.88;4987988;28;20082;-75
2023/08/13 06:15:00;;;;;;;16.27;5.35;;;;;;;16.23;100.00;101566.75;4923056;28;20053;-75
2023/08/13 06:17:28;;;;;;;11.13;3.67;;;;;;;16.23;100.00;101570.28;4988762;28;20050;-75
2023/08/13 06:19:55;;;;;;;10.55;3.50;;;;;;;16.25;100.00;101570.28;4968002;28;20050;-74
2023/08/13 06:22:23;;;;;;;11.60;3.58;;;;;;;16.24;100.00;101568.50;4971163;28;20061;-75
2023/08/13 06:24:50;;;;;;;11.18;3.80;;;;;;;16.24;100.00;101574.72;4985064;28;20120;-75
2023/08/13 06:27:17;;;;;;;9.98;4.18;;;;;;;16.26;100.00;101574.72;4969589;28;20050;-75
2023/08/13 06:29:44;;;;;;;10.23;3.65;;;;;;;16.27;100.00;101577.34;4931185;28;20050;-75
2023/08/13 06:32:32;;;;;;;9.05;3.67;;;;;;;16.31;100.00;101586.16;4990553;28;20057;-75
2023/08/13 06:34:59;;;;;;;16.63;4.50;;;;;;;16.34;100.00;101586.16;4966171;28;20053;-75
2023/08/13 06:37:26;;;;;;;13.73;4.47;;;;;;;16.34;100.00;101584.38;4969941;28;20081;-75
2023/08/13 06:39:54;;;;;;;13.35;3.80;;;;;;;16.35;100.00;101572.84;4935615;28;20050;-75
2023/08/13 06:42:21;;;;;;;7.95;3.60;;;;;;;16.49;100.00;101579.81;4969360;28;20050;-76
2023/08/13 06:44:50;;;;;;;20.70;4.30;;;;;;;16.71;100.00;101578.72;4945795;28;20057;-74
2023/08/13 06:47:17;;;;;;;15.52;4.07;;;;;;;16.91;100.00;101575.84;4971035;28;20081;-75
2023/08/13 06:49:44;;;;;;;10.30;4.05;;;;;;;17.15;100.00;101584.44;4968053;28;20050;-75
2023/08/13 06:52:12;;;;;;;11.48;3.30;;;;;;;17.32;100.00;101579.78;4967645;28;20463;-75
2023/08/13 06:54:40;;;;;;;9.88;3.45;;;;;;;17.48;100.00;101575.13;4986902;28;20054;-74
2023/08/13 06:57:08;;;;;;;13.43;3.92;;;;;;;17.65;100.00;101582.00;4966861;28;20046;-76
2023/08/13 06:59:35;;;;;;;11.65;4.15;;;;;;;17.75;100.00;101580.97;4970485;28;20046;-74
2023/08/13 07:02:04;;;;;;;14.15;4.25;;;;;;;17.90;100.00;101578.09;4922788;28;20046;-76
2023/08/13 07:04:32;;;;;;;10.63;3.92;;;;;;;18.04;100.00;101587.66;4970661;28;20046;-75
2023/08/13 07:06:59;;;;;;;10.93;4.10;;;;;;;18.18;100.00;101577.63;4966136;28;20054;-76
2023/08/13 07:09:27;;;;;;;13.38;3.17;;;;;;;18.22;100.00;101584.72;4970149;28;20062;-76
2023/08/13 07:11:55;;;;;;;11.40;4.13;;;;;;;18.21;100.00;101588.25;4967639;28;20045;-75
2023/08/13 07:14:22;;;;;;;11.38;3.65;;;;;;;18.15;100.00;101585.72;4985857;28;20053;-75
2023/08/13 07:16:50;;;;;;;13.70;3.95;;;;;;;18.12;100.00;101596.41;4928068;28;20038;-74
2023/08/13 07:19:17;;;;;;;9.55;2.90;;;;;;;18.17;100.00;101597.22;4986070;28;20046;-75
2023/08/13 07:21:46;;;;;;;12.50;3.10;;;;;;;18.22;100.00;101586.47;4968516;28;20514;-76
2023/08/13 07:24:13;;;;;;;11.73;3.65;;;;;;;18.27;100.00;101582.81;4985709;28;20062;-76
2023/08/13 07:26:41;;;;;;;8.55;3.30;;;;;;;18.39;100.00;101578.19;4968923;28;20050;-74
2023/08/13 07:29:08;;;;;;;11.80;3.58;;;;;;;18.56;100.00;101576.06;4966941;28;20062;-75
2023/08/13 07:31:35;;;;;;;6.88;4.07;;;;;;;18.75;100.00;101573.97;4969650;28;20053;-74
2023/08/13 07:34:03;;;;;;;8.77;3.65;;;;;;;18.88;100.00;101574.63;4924706;28;20050;-75
2023/08/13 07:36:30;;;;;;;9.50;3.20;;;;;;;19.02;100.00;101585.91;4970020;28;20400;-76
2023/08/13 07:38:58;;;;;;;10.00;2.70;;;;;;;19.15;100.00;101585.66;4966808;28;20419;-75
2023/08/13 07:41:25;;;;;;;10.30;2.65;;;;;;;19.24;100.00;101575.69;4968573;28;20054;-77
2023/08/13 07:43:53;;;;;;;10.57;2.83;;;;;;;19.25;100.00;101585.44;4967687;28;20065;-76
2023/08/13 07:46:20;;;;;;;7.40;3.15;;;;;;;19.23;100.00;101584.59;4969615;28;20046;-76
2023/08/13 07:48:48;;;;;;;7.65;2.92;;;;;;;19.32;100.00;101593.31;4955830;28;20045;-77
2023/08/13 07:51:15;;;;;;;8.60;3.28;;;;;;;19.32;100.00;101583.53;4979742;28;20827;-76
2023/08/13 07:53:42;;;;;;;8.85;2.90;;;;;;;19.34;100.00;101586.13;4956938;28;20530;-76
2023/08/13 07:56:10;;;;;;;5.53;2.78;;;;;;;19.34;100.00;101580.78;4955957;28;20046;-76
2023/08/13 07:58:38;;;;;;;7.22;3.20;;;;;;;19.40;100.00;101586.03;4974004;28;20407;-76
2023/08/13 08:01:06;;;;;;;11.82;3.33;;;;;;;19.43;100.00;101589.53;4988949;28;20640;-76
2023/08/13 08:03:33;;;;;;;11.23;2.92;;;;;;;19.51;100.00;101578.66;4954119;28;20050;-76
2023/08/13 08:06:00;;;;;;;10.23;3.03;;;;;;;19.60;100.00;101578.47;5012767;28;20056;-76
2023/08/13 08:08:28;;;;;;;9.05;2.72;;;;;;;19.61;100.00;101582.88;4976541;28;20047;-76
2023/08/13 08:10:55;;;;;;;12.93;3.60;;;;;;;19.64;100.00;101584.56;4971007;28;20449;-76
2023/08/13 08:13:22;;;;;;;8.95;3.58;;;;;;;19.63;100.00;101593.53;4973245;28;20046;-76
2023/08/13 08:15:50;;;;;;;13.07;3.05;;;;;;;19.66;100.00;101598.81;4972437;28;20061;-76
2023/08/13 08:18:17;;;;;;;11.23;3.00;;;;;;;19.67;100.00;101590.75;4972971;28;20054;-76
2023/08/13 08:20:44;;;;;;;11.05;2.78;;;;;;;19.68;100.00;101597.88;4932251;28;20038;-77
2023/08/13 08:23:13;;;;;;;9.05;2.78;;;;;;;19.66;100.00;101589.00;4987252;28;20539;-77
2023/08/13 08:25:41;;;;;;;6.40;2.67;;;;;;;19.73;100.00;101592.44;5003580;28;20062;-77
2023/08/13 08:28:08;;;;;;;7.60;3.25;;;;;;;19.78;100.00;101595.88;5002836;28;20042;-77
2023/08/13 08:30:36;;;;;;;8.38;2.50;;;;;;;19.85;100.00;101596.63;5004817;28;20490;-76
2023/08/13 08:33:04;;;;;;;12.57;2.92;;;;;;;19.89;100.00;101597.44;4985374;28;20042;-77
2023/08/13 08:35:33;;;;;;;9.23;2.95;;;;;;;19.84;100.00;101594.84;4980163;28;20056;-77
2023/08/13 08:38:01;;;;;;;15.23;3.25;;;;;;;19.80;100.00;101593.19;4970724;28;20058;-77
2023/08/13 08:40:28;;;;;;;11.25;2.97;;;;;;;19.73;100.00;101597.78;4973516;28;20046;-76
2023/08/13 08:42:57;;;;;;;13.02;3.15;;;;;;;19.67;100.00;101600.56;4970498;28;20074;-76
2023/08/13 08:45:25;;;;;;;15.85;2.53;;;;;;;19.75;100.00;101595.94;4973610;28;20397;-76
2023/08/13 08:47:54;;;;;;;10.10;3.03;;;;;;;19.90;100.00;101596.50;4970842;28;20420;-76
2023/08/13 08:50:21;;;;;;;13.05;2.75;;;;;;;20.05;100.00;101599.69;4934796;28;20042;-77
2023/08/13 08:52:50;;;;;;;7.95;2.45;;;;;;;20.18;100.00;101599.41;4986688;28;20047;-77
2023/08/13 08:55:17;;;;;;;10.68;2.70;;;;;;;20.23;100.00;101589.47;5003541;28;20046;-77
2023/08/13 08:57:44;;;;;;;7.90;2.20;;;;;;;20.24;100.00;101597.47;5003093;28;20046;-77
2023/08/13 09:00:12;;;;;;;7.05;2.13;;;;;;;20.31;100.00;101586.59;4971710;28;20038;-77
2023/08/13 09:02:41;;;;;;;8.45;2.38;;;;;;;20.39;100.00;101592.63;4957177;28;20508;-77
2023/08/13 09:05:09;;;;;;;9.15;2.78;;;;;;;20.39;100.00;101597.97;4929409;28;20633;-77
2023/08/13 09:07:39;;;;;;;6.22;2.60;;;;;;;20.42;100.00;101589.88;4988733;28;20053;-76
2023/08/13 09:10:06;;;;;;;7.20;2.22;;;;;;;20.57;100.00;101584.09;4986824;28;20134;-76
2023/08/13 09:12:41;;;;;;;7.65;2.20;;;;;;;20.78;100.00;101584.47;4998469;28;20054;-76
2023/08/13 09:15:13;;;;;;;8.52;3.17;;;;;;;20.93;100.00;101592.09;4969856;28;20053;-76
2023/08/13 09:17:41;;;;;;;4.70;2.35;;;;;;;20.96;100.00;101591.09;4971099;28;20080;-76
2023/08/13 09:20:19;;;;;;;8.27;2.60;;;;;;;21.05;100.00;101595.34;4929638;28;22355;-77
2023/08/13 09:22:48;;;;;;;8.43;3.00;;;;;;;21.16;100.00;101585.19;4970092;28;20061;-77
2023/08/13 09:25:16;;;;;;;6.47;2.45;;;;;;;21.22;100.00;101593.91;4971922;28;20046;-76
2023/08/13 09:27:46;;;;;;;7.43;2.33;;;;;;;21.21;100.00;101585.94;4989152;28;20054;-77
2023/08/13 09:30:30;;;;;;;8.13;2.38;;;;;;;21.13;100.00;101588.81;4970389;28;20050;-77
2023/08/13 09:32:59;;;;;;;4.72;2.03;;;;;;;21.10;100.00;101596.97;4970375;28;20050;-77
2023/08/13 09:35:27;;;;;;;9.85;2.20;;;;;;;21.03;100.00;101588.22;4989178;28;20046;-77
2023/08/13 09:37:54;;;;;;;7.95;2.40;;;;;;;20.88;100.00;101594.00;4946438;28;20427;-77
2023/08/13 09:40:22;;;;;;;7.15;1.98;;;;;;;20.75;100.00;101595.25;4971259;28;20050;-77
2023/08/13 09:42:54;;;;;;;5.85;2.42;;;;;;;20.72;100.00;101590.88;4970923;28;20059;-77
2023/08/13 09:45:24;;;;;;;4.15;1.83;;;;;;;20.80;100.00;101579.97;4971721;28;20050;-76
2023/08/13 09:47:54;;;;;;;;;;;;;;;20.82;100.00;101576.31;4971280;28;20151;-77
2023/08/13 09:50:25;;;;;;;6.03;1.75;;;;;;;20.88;100.00;101585.97;4971961;28;19921;-76
2023/08/13 09:52:54;;;;;;;5.90;1.90;;;;;;;20.95;100.00;101584.88;4944855;28;20047;-77
2023/08/13 09:55:27;;;;;;;6.03;1.90;;;;;;;20.92;100.00;101584.94;4971103;28;20054;-76
2023/08/13 09:57:58;;;;;;;9.00;2.15;;;;;;;20.95;100.00;101582.19;4966633;28;20061;-77
2023/08/13 10:00:27;;;;;;;6.57;2.08;;;;;;;20.98;100.00;101584.81;4989030;28;20073;-77
2023/08/13 10:02:54;;;;;;;5.35;1.92;;;;;;;20.94;100.00;101582.25;4969323;28;20075;-78
2023/08/13 10:05:23;;;;;;;5.93;2.10;;;;;;;20.89;100.00;101571.66;4971561;28;20061;-77
2023/08/13 10:07:50;;;;;;;3.85;1.60;;;;;;;20.94;100.00;101574.19;4941799;28;20057;-77
2023/08/13 10:10:19;;;;;;;6.22;1.83;;;;;;;21.11;100.00;101569.22;4970717;28;20042;-77
2023/08/13 10:12:47;;;;;;;5.82;1.83;;;;;;;21.30;100.00;101557.97;4971058;28;20050;-77
2023/08/13 10:15:15;;;;;;;9.80;1.67;;;;;;;21.36;100.00;101566.72;4970325;28;20050;-77
2023/08/13 10:17:44;;;;;;;5.55;1.48;;;;;;;21.43;100.00;101560.22;4971163;28;20577;-77
2023/08/13 10:20:12;;;;;;;8.07;1.55;;;;;;;21.50;100.00;101552.03;4987149;28;20492;-77
2023/08/13 10:22:40;;;;;;;5.28;1.52;;;;;;;21.65;100.00;101559.59;4930537;28;20045;-77
2023/08/13 10:25:08;;;;;;;6.30;1.77;;;;;;;21.80;100.00;101567.16;4985343;28;20054;-77
2023/08/13 10:27:42;;;;;;;5.20;1.42;;;;;;;21.94;100.00;101569.38;5002706;28;20061;-77
2023/08/13 10:30:13;;;;;;;7.82;1.75;;;;;;;22.03;100.00;101568.19;5000445;28;20415;-77
2023/08/13 10:32:49;;;;;;;5.13;1.40;;;;;;;22.06;100.00;101564.53;4987584;28;20069;-76
2023/08/13 10:35:39;;;;;;;5.07;1.80;;;;;;;22.04;100.00;101563.69;4986220;28;20046;-76
2023/08/13 10:38:10;;;;;;;4.05;1.55;;;;;;;22.00;100.00;101571.88;4947774;28;20056;-77
2023/08/13 10:40:58;;;;;;;3.67;1.58;;;;;;;21.94;100.00;101573.88;4988903;28;20492;-77
2023/08/13 10:43:26;;;;;;;4.70;1.42;;;;;;;21.87;100.00;101572.31;4971825;28;20053;-77
2023/08/13 10:45:54;;;;;;;5.22;1.70;;;;;;;21.71;100.00;101575.47;4967936;28;20054;-77
2023/08/13 10:48:30;;;;;;;5.47;1.50;;;;;;;21.60;100.00;101577.63;4970586;28;20053;-77
2023/08/13 10:50:58;;;;;;;4.22;1.70;;;;;;;21.56;100.00;101570.59;4968313;28;20057;-77
2023/08/13 10:53:27;;;;;;;3.25;1.10;;;;;;;21.51;100.00;101569.84;4970941;28;20050;-77
2023/08/13 10:56:00;;;;;;;6.30;3.25;;;;;;;21.46;100.00;101578.06;4960244;28;20049;-77
2023/08/13 10:58:30;;;;;;;4.15;1.30;;;;;;;21.47;100.00;101569.06;4966018;28;20054;-77
2023/08/13 11:00:59;;;;;;;3.43;1.60;;;;;;;21.52;100.00;101575.19;4967523;28;20050;-77
2023/08/13 11:03:31;;;;;;;4.80;1.52;;;;;;;21.75;100.00;101570.91;4970917;28;20061;-76
2023/08/13 11:05:59;;;;;;;3.28;1.40;;;;;;;21.94;100.00;101569.38;4967179;28;20054;-77
2023/08/13 11:08:26;;;;;;;4.43;1.25;;;;;;;22.07;100.00;101568.97;4954826;28;20050;-77
2023/08/13 11:11:17;;;;;;;4.00;1.30;;;;;;;22.05;100.00;101570.84;4947774;28;20131;-77
2023/08/13 11:13:46;;;;;;;4.03;1.20;;;;;;;22.19;100.00;101576.59;4969610;28;20050;-77
2023/08/13 11:16:14;;;;;;;3.03;1.50;;;;;;;22.31;100.00;101564.63;4967745;28;20050;-76
2023/08/13 11:18:42;;;;;;;3.75;1.23;;;;;;;22.34;100.00;101567.19;4970276;28;20397;-76
2023/08/13 11:21:09;;;;;;;3.80;1.60;;;;;;;22.29;100.00;101570.03;4964132;28;20517;-77